Time;durP1;ratioP1;P1;durP2;ratioP2;P2;SDS_P1;SDS_P2;PMS_P1;PMS_P2;Temp;Humidity;BMP_temperature;BMP_pressure;BME280_temperature;BME280_humidity;BME280_pressure;Samples;Min_cycle;Max_cycle;Signal;HPM_P1;HPM_P2
2023/05/15 00:00:13;;;;;;;10.93;6.78;;;15.30;57.40;;;;;;5037306;28;20045;-73
2023/05/15 00:02:43;;;;;;;9.93;6.90;;;15.30;57.40;;;;;;5037177;28;20045;-74
2023/05/15 00:05:09;;;;;;;10.80;7.55;;;15.30;57.50;;;;;;5037211;28;20573;-72
2023/05/15 00:07:36;;;;;;;10.80;6.82;;;15.30;57.60;;;;;;5034684;28;20439;-73
2023/05/15 00:10:02;;;;;;;11.27;7.07;;;15.30;57.70;;;;;;5036742;28;20120;-73
2023/05/15 00:12:28;;;;;;;11.02;6.72;;;15.20;57.70;;;;;;5036732;28;20041;-73
2023/05/15 00:14:54;;;;;;;8.93;6.10;;;15.20;57.70;;;;;;5035866;28;20411;-73
2023/05/15 00:17:20;;;;;;;8.73;6.28;;;15.20;57.80;;;;;;5037366;28;20041;-74
2023/05/15 00:19:46;;;;;;;8.35;6.30;;;15.20;57.90;;;;;;5036182;28;20037;-73
2023/05/15 00:22:12;;;;;;;12.27;6.40;;;15.10;57.90;;;;;;5036890;28;20037;-73
2023/05/15 00:24:38;;;;;;;10.60;6.45;;;15.10;58.00;;;;;;5036162;28;20051;-73
2023/05/15 00:27:04;;;;;;;9.40;5.88;;;15.10;58.00;;;;;;5035806;28;20500;-72
2023/05/15 00:29:30;;;;;;;14.27;7.15;;;15.10;58.20;;;;;;5051452;28;20072;-73
2023/05/15 00:31:56;;;;;;;10.98;7.15;;;15.10;58.30;;;;;;5036746;28;20084;-73
2023/05/15 00:34:24;;;;;;;9.55;7.35;;;15.00;58.30;;;;;;5033345;28;20037;-73
2023/05/15 00:36:50;;;;;;;11.65;8.00;;;15.00;58.30;;;;;;5036215;28;20614;-73
2023/05/15 00:39:16;;;;;;;11.05;8.02;;;15.00;58.50;;;;;;5035296;28;20033;-73
2023/05/15 00:41:44;;;;;;;18.23;9.55;;;15.00;58.60;;;;;;5034523;28;20041;-73
2023/05/15 00:44:11;;;;;;;16.30;10.43;;;14.90;58.60;;;;;;5050794;28;20041;-72
2023/05/15 00:46:39;;;;;;;14.77;9.07;;;14.90;58.80;;;;;;5036324;28;20119;-73
2023/05/15 00:49:05;;;;;;;14.73;8.60;;;14.90;58.80;;;;;;5036039;28;20037;-73
2023/05/15 00:51:32;;;;;;;14.35;8.80;;;14.80;58.80;;;;;;5034111;28;20037;-74
2023/05/15 00:53:58;;;;;;;12.38;8.40;;;14.80;58.90;;;;;;5050753;28;20396;-73
2023/05/15 00:56:29;;;;;;;14.52;8.95;;;14.80;59.00;;;;;;5068781;28;20044;-73
2023/05/15 00:58:56;;;;;;;16.25;10.15;;;14.80;59.10;;;;;;5035294;28;20380;-73
2023/05/15 01:01:24;;;;;;;15.50;9.27;;;14.80;59.10;;;;;;5034760;28;20087;-73
2023/05/15 01:03:50;;;;;;;16.65;9.52;;;14.80;59.10;;;;;;5034994;28;20140;-72
2023/05/15 01:06:16;;;;;;;19.30;10.95;;;14.80;59.20;;;;;;5035290;28;20167;-73
2023/05/15 01:08:45;;;;;;;20.48;11.25;;;14.70;59.20;;;;;;5034848;28;20041;-73
2023/05/15 01:11:13;;;;;;;19.02;10.65;;;14.70;59.20;;;;;;5034116;28;20203;-73
2023/05/15 01:13:39;;;;;;;20.33;9.30;;;14.60;59.40;;;;;;5039185;28;20044;-73
2023/05/15 01:16:06;;;;;;;17.00;9.70;;;14.60;59.30;;;;;;5035764;28;20063;-73
2023/05/15 01:18:33;;;;;;;15.38;9.52;;;14.60;59.40;;;;;;5035085;28;20048;-72
2023/05/15 01:21:17;;;;;;;19.92;9.75;;;14.60;59.50;;;;;;5035861;28;20034;-74
2023/05/15 01:24:02;;;;;;;17.75;10.10;;;14.60;59.60;;;;;;5031519;28;20080;-73
2023/05/15 01:26:54;;;;;;;15.35;8.88;;;14.60;59.60;;;;;;5034114;28;20079;-72
2023/05/15 01:29:28;;;;;;;14.25;8.63;;;14.60;59.70;;;;;;5036334;28;20037;-73
2023/05/15 01:32:01;;;;;;;14.57;9.00;;;14.50;59.60;;;;;;5033820;28;20156;-74
2023/05/15 01:34:52;;;;;;;14.15;9.52;;;14.50;59.60;;;;;;5033553;28;20527;-73
2023/05/15 01:37:25;;;;;;;13.23;7.90;;;14.50;59.60;;;;;;5035277;28;20041;-73
2023/05/15 01:39:59;;;;;;;14.43;7.25;;;14.50;59.80;;;;;;5050116;28;20045;-73
2023/05/15 01:42:31;;;;;;;13.50;6.40;;;14.50;59.80;;;;;;5016645;28;20034;-73
2023/05/15 01:45:03;;;;;;;9.63;6.05;;;14.50;60.00;;;;;;5050497;28;20029;-73
2023/05/15 01:47:42;;;;;;;11.25;5.80;;;14.40;60.10;;;;;;5034175;28;20223;-71
2023/05/15 01:50:12;;;;;;;10.23;5.80;;;14.40;60.10;;;;;;5066439;28;20032;-73
2023/05/15 01:52:42;;;;;;;8.52;5.20;;;14.30;60.20;;;;;;5035084;28;20033;-73
2023/05/15 01:55:09;;;;;;;7.93;5.82;;;14.30;60.20;;;;;;5035459;28;20121;-73
2023/05/15 01:57:37;;;;;;;9.38;5.53;;;14.30;60.20;;;;;;5067221;28;20419;-73
2023/05/15 02:00:03;;;;;;;8.27;5.75;;;14.30;60.20;;;;;;5033574;28;20076;-73
2023/05/15 02:02:41;;;;;;;9.65;5.82;;;14.30;60.20;;;;;;5035430;28;20029;-73
2023/05/15 02:05:08;;;;;;;11.30;6.13;;;14.30;60.30;;;;;;5038219;28;20032;-74
2023/05/15 02:07:34;;;;;;;9.32;6.35;;;14.30;60.30;;;;;;5034101;28;20040;-73
2023/05/15 02:10:01;;;;;;;11.00;5.70;;;14.20;60.40;;;;;;5033278;28;20076;-73
2023/05/15 02:12:30;;;;;;;7.30;5.72;;;14.30;60.50;;;;;;5034465;28;20126;-72
2023/05/15 02:14:58;;;;;;;9.20;5.43;;;14.30;60.50;;;;;;5048599;28;20546;-73
2023/05/15 02:17:24;;;;;;;8.85;5.40;;;14.40;60.50;;;;;;5034602;28;20068;-73
2023/05/15 02:19:50;;;;;;;8.48;5.60;;;14.50;60.50;;;;;;5017338;28;20149;-73
2023/05/15 02:22:16;;;;;;;7.63;5.43;;;14.50;60.30;;;;;;5050088;28;20045;-72
2023/05/15 02:24:43;;;;;;;8.70;5.00;;;14.60;60.30;;;;;;5049149;28;20037;-73
2023/05/15 02:27:20;;;;;;;10.18;5.03;;;14.70;60.20;;;;;;5032897;28;20029;-73
2023/05/15 02:30:07;;;;;;;7.32;4.78;;;14.80;60.00;;;;;;5037332;28;20934;-72
2023/05/15 02:32:43;;;;;;;6.55;5.00;;;15.00;59.80;;;;;;5034417;28;20032;-73
2023/05/15 02:35:16;;;;;;;;;;;15.20;59.50;;;;;;5035688;28;20882;-72
2023/05/15 02:37:53;;;;;;;6.75;5.18;;;15.20;59.10;;;;;;5020194;28;19925;-73
2023/05/15 02:40:22;;;;;;;7.90;5.75;;;15.40;58.90;;;;;;5035869;28;20537;-72
2023/05/15 02:42:51;;;;;;;9.68;4.95;;;15.50;58.50;;;;;;5050341;28;20033;-73
2023/05/15 02:45:19;;;;;;;7.75;4.93;;;15.60;58.10;;;;;;5034104;28;20129;-73
2023/05/15 02:47:47;;;;;;;7.65;5.55;;;15.80;57.80;;;;;;5037358;28;20045;-73
2023/05/15 02:50:13;;;;;;;8.07;5.10;;;15.90;57.70;;;;;;5049665;28;20132;-73
2023/05/15 02:52:39;;;;;;;9.88;5.20;;;15.90;57.60;;;;;;5034942;28;20527;-73
2023/05/15 02:55:06;;;;;;;11.13;5.72;;;15.90;57.60;;;;;;5066528;28;20040;-73
2023/05/15 02:57:32;;;;;;;7.63;4.65;;;15.90;57.40;;;;;;5033281;28;20041;-72
2023/05/15 02:59:59;;;;;;;7.50;4.93;;;15.80;57.20;;;;;;5033119;28;20521;-73
2023/05/15 03:02:25;;;;;;;9.25;6.03;;;15.90;57.00;;;;;;5069292;28;20550;-73
2023/05/15 03:04:51;;;;;;;9.35;5.25;;;15.90;56.80;;;;;;5068162;28;20041;-73
2023/05/15 03:07:17;;;;;;;7.65;5.00;;;15.90;56.60;;;;;;5038946;28;20070;-73
2023/05/15 03:09:43;;;;;;;7.70;5.35;;;15.90;56.50;;;;;;5037553;28;20572;-73
2023/05/15 03:12:09;;;;;;;7.20;5.10;;;15.90;56.50;;;;;;5038027;28;20041;-73
2023/05/15 03:14:36;;;;;;;7.18;5.20;;;15.90;56.30;;;;;;5036843;28;20039;-73
2023/05/15 03:17:02;;;;;;;10.10;5.65;;;15.80;56.30;;;;;;5036185;28;20041;-73
2023/05/15 03:19:28;;;;;;;9.20;6.03;;;15.80;56.30;;;;;;5038219;28;20567;-73
2023/05/15 03:21:54;;;;;;;6.82;5.13;;;15.80;56.60;;;;;;5040461;28;20206;-73
2023/05/15 03:24:20;;;;;;;7.13;4.93;;;15.80;56.70;;;;;;5069593;28;20033;-73
2023/05/15 03:26:46;;;;;;;5.78;4.88;;;15.70;56.60;;;;;;5034875;28;20048;-71
2023/05/15 03:29:12;;;;;;;5.88;4.30;;;15.70;56.40;;;;;;5052274;28;20303;-72
2023/05/15 03:31:38;;;;;;;5.47;3.58;;;15.80;56.40;;;;;;5066256;28;20041;-73
2023/05/15 03:34:04;;;;;;;7.78;3.70;;;15.70;56.20;;;;;;5036021;28;20053;-74
2023/05/15 03:36:30;;;;;;;4.30;3.47;;;15.70;56.10;;;;;;5039042;28;20037;-73
2023/05/15 03:38:56;;;;;;;6.13;3.50;;;15.70;56.10;;;;;;5036712;28;20033;-73
2023/05/15 03:41:24;;;;;;;6.30;3.20;;;15.70;56.20;;;;;;5036258;28;20514;-74
2023/05/15 03:43:51;;;;;;;3.78;3.10;;;15.80;56.40;;;;;;5037787;28;20033;-72
2023/05/15 03:46:17;;;;;;;4.75;3.28;;;15.90;56.20;;;;;;5038491;28;20129;-84
2023/05/15 03:48:43;;;;;;;5.85;3.33;;;16.00;55.90;;;;;;5035572;28;20124;-73
2023/05/15 03:51:09;;;;;;;4.68;2.95;;;16.30;55.40;;;;;;5034894;28;20919;-74
2023/05/15 03:53:35;;;;;;;4.00;3.10;;;16.50;54.90;;;;;;5050033;28;20124;-73
2023/05/15 03:56:02;;;;;;;3.67;3.20;;;16.80;54.50;;;;;;5035295;28;20633;-74
2023/05/15 03:58:30;;;;;;;4.60;3.00;;;17.00;54.20;;;;;;5067705;28;20499;-72
2023/05/15 04:00:57;;;;;;;4.43;3.38;;;17.20;53.70;;;;;;5035185;28;20128;-73
2023/05/15 04:03:23;;;;;;;6.20;3.38;;;17.40;53.40;;;;;;5036553;28;20028;-73
2023/05/15 04:05:49;;;;;;;5.65;3.13;;;17.70;52.90;;;;;;5035810;28;20439;-76
2023/05/15 04:08:15;;;;;;;6.75;3.00;;;17.90;52.40;;;;;;5037460;28;20034;-76
2023/05/15 04:10:41;;;;;;;5.93;3.40;;;18.20;51.90;;;;;;5035063;28;20508;-76
2023/05/15 04:13:07;;;;;;;3.30;3.00;;;18.40;51.20;;;;;;5034592;28;20056;-76
2023/05/15 04:15:34;;;;;;;5.10;2.50;;;18.60;50.90;;;;;;5036940;28;20068;-76
2023/05/15 04:18:00;;;;;;;5.00;3.03;;;18.90;50.50;;;;;;5035092;28;20404;-80
2023/05/15 04:20:26;;;;;;;5.10;2.70;;;19.10;50.10;;;;;;5037288;28;20605;-78
2023/05/15 04:22:52;;;;;;;3.67;2.80;;;19.30;49.60;;;;;;5036743;28;20037;-80
2023/05/15 04:25:19;;;;;;;11.45;3.10;;;19.50;49.20;;;;;;5036396;28;20048;-80
2023/05/15 04:27:45;;;;;;;3.35;2.70;;;19.70;49.00;;;;;;5050845;28;20384;-81
2023/05/15 04:30:12;;;;;;;4.80;2.50;;;19.90;48.60;;;;;;5034765;28;20136;-86
2023/05/15 04:32:39;;;;;;;2.50;2.30;;;20.10;48.40;;;;;;5034884;28;20033;-83
2023/05/15 04:35:08;;;;;;;3.03;2.60;;;20.20;48.00;;;;;;5036400;28;20049;-73
2023/05/15 04:37:35;;;;;;;4.05;2.38;;;20.40;47.60;;;;;;5034009;28;20053;-75
2023/05/15 04:40:01;;;;;;;3.05;2.50;;;20.60;47.60;;;;;;5033578;28;20061;-75
2023/05/15 04:42:27;;;;;;;5.20;2.47;;;20.80;47.10;;;;;;5034164;28;20451;-76
2023/05/15 04:44:53;;;;;;;4.78;2.40;;;21.00;46.70;;;;;;5035147;28;20033;-75
2023/05/15 04:47:20;;;;;;;4.05;2.08;;;21.20;46.50;;;;;;5036188;28;20032;-74
2023/05/15 04:49:49;;;;;;;2.67;1.83;;;21.40;46.40;;;;;;5034756;28;20042;-73
2023/05/15 04:52:15;;;;;;;3.42;2.08;;;21.50;45.90;;;;;;5036402;28;20419;-75
2023/05/15 04:54:41;;;;;;;6.30;1.92;;;21.60;45.80;;;;;;5030690;28;20053;-75
2023/05/15 04:57:07;;;;;;;2.90;1.85;;;21.80;45.30;;;;;;5026354;28;20195;-77
2023/05/15 04:59:34;;;;;;;1.73;1.63;;;22.00;45.00;;;;;;5042071;28;20070;-74
2023/05/15 05:02:01;;;;;;;2.78;2.13;;;22.10;44.90;;;;;;5044604;28;20056;-75
2023/05/15 05:04:27;;;;;;;3.58;1.80;;;22.30;44.70;;;;;;5041145;28;20140;-75
2023/05/15 05:06:53;;;;;;;2.20;1.95;;;22.40;44.70;;;;;;5033575;28;20037;-74
2023/05/15 05:09:19;;;;;;;3.95;2.00;;;22.60;44.60;;;;;;5065152;28;20102;-75
2023/05/15 05:11:46;;;;;;;3.03;1.92;;;22.70;44.30;;;;;;5035065;28;20496;-75
2023/05/15 05:14:13;;;;;;;2.85;1.60;;;22.90;44.10;;;;;;5033404;28;20029;-75
2023/05/15 05:16:40;;;;;;;3.20;1.60;;;23.10;44.30;;;;;;5033500;28;20037;-75
2023/05/15 05:19:06;;;;;;;4.40;1.60;;;23.30;43.80;;;;;;5033243;28;20033;-74
2023/05/15 05:21:32;;;;;;;2.25;1.38;;;23.50;43.20;;;;;;5034226;28;20048;-75
2023/05/15 05:23:59;;;;;;;3.03;1.40;;;23.80;42.80;;;;;;5033988;28;20033;-75
2023/05/15 05:26:25;;;;;;;3.50;1.20;;;24.00;41.90;;;;;;5033587;28;20171;-76
2023/05/15 05:28:52;;;;;;;3.70;1.13;;;24.20;41.90;;;;;;5035004;28;20059;-75
2023/05/15 05:31:19;;;;;;;2.75;1.40;;;24.40;40.60;;;;;;5034525;28;20075;-75
2023/05/15 05:33:45;;;;;;;2.50;1.27;;;24.60;40.10;;;;;;5031787;28;20535;-75
2023/05/15 05:36:11;;;;;;;2.53;1.23;;;24.70;40.80;;;;;;5033073;28;20131;-75
2023/05/15 05:38:37;;;;;;;1.65;1.00;;;24.90;40.50;;;;;;5033868;28;20027;-75
2023/05/15 05:41:03;;;;;;;0.98;0.60;;;25.10;39.90;;;;;;5033541;28;20078;-74
2023/05/15 05:43:30;;;;;;;3.05;0.90;;;25.20;39.70;;;;;;5035043;28;20117;-74
2023/05/15 05:45:55;;;;;;;1.35;0.80;;;25.40;39.20;;;;;;5034692;28;20409;-74
2023/05/15 05:48:21;;;;;;;1.63;0.77;;;25.50;38.90;;;;;;5033773;28;20044;-75
2023/05/15 05:50:47;;;;;;;1.25;0.82;;;25.60;38.30;;;;;;5033652;28;20438;-75
2023/05/15 05:53:13;;;;;;;2.63;0.85;;;25.70;38.40;;;;;;5034510;28;20040;-75
2023/05/15 05:55:39;;;;;;;3.30;0.75;;;25.90;38.00;;;;;;5033292;28;20370;-74
2023/05/15 05:58:05;;;;;;;0.57;0.52;;;26.00;38.30;;;;;;5034183;28;20523;-75
2023/05/15 06:00:31;;;;;;;4.88;0.80;;;25.90;39.30;;;;;;5033729;28;20041;-74
2023/05/15 06:02:58;;;;;;;2.17;1.30;;;25.90;39.70;;;;;;5034244;28;20668;-75
2023/05/15 06:05:25;;;;;;;1.13;0.93;;;25.90;38.90;;;;;;5036021;28;20040;-75
2023/05/15 06:07:52;;;;;;;2.95;0.80;;;26.00;38.30;;;;;;5034020;28;20041;-75
2023/05/15 06:10:19;;;;;;;0.77;0.70;;;26.00;38.30;;;;;;5034196;28;20038;-76
2023/05/15 06:12:45;;;;;;;1.20;0.50;;;26.00;38.90;;;;;;5033997;28;20036;-75
2023/05/15 06:15:12;;;;;;;1.02;0.70;;;26.10;38.20;;;;;;5034528;28;20033;-75
2023/05/15 06:17:38;;;;;;;1.65;0.70;;;26.10;39.30;;;;;;5034527;28;20040;-75
2023/05/15 06:20:08;;;;;;;0.52;0.52;;;26.10;39.10;;;;;;5034308;28;20036;-79
2023/05/15 06:22:38;;;;;;;2.42;0.70;;;26.20;38.80;;;;;;5034173;28;20068;-86
2023/05/15 06:25:05;;;;;;;1.23;0.50;;;26.30;38.40;;;;;;5033187;28;20083;-77
2023/05/15 06:27:32;;;;;;;0.60;0.60;;;26.20;37.90;;;;;;5033078;28;20056;-76
2023/05/15 06:29:58;;;;;;;2.28;0.77;;;26.10;38.10;;;;;;5033871;28;20038;-76
2023/05/15 06:32:24;;;;;;;0.88;0.70;;;26.10;37.70;;;;;;5030971;28;20029;-76
2023/05/15 06:34:50;;;;;;;1.40;0.60;;;25.90;37.70;;;;;;5032561;28;20056;-76
2023/05/15 06:37:16;;;;;;;0.50;0.50;;;25.90;38.10;;;;;;5036887;28;20045;-76
2023/05/15 06:39:42;;;;;;;1.17;0.55;;;26.00;38.60;;;;;;5069710;28;20048;-76
2023/05/15 06:42:08;;;;;;;1.95;0.70;;;26.10;38.40;;;;;;5036488;28;20033;-76
2023/05/15 06:44:34;;;;;;;1.65;0.77;;;26.10;37.60;;;;;;5070549;28;20461;-76
2023/05/15 06:47:01;;;;;;;2.67;0.80;;;26.10;37.30;;;;;;5037761;28;20071;-77
2023/05/15 06:49:27;;;;;;;1.10;0.52;;;26.10;37.10;;;;;;5035847;28;20810;-76
2023/05/15 06:51:53;;;;;;;0.93;0.50;;;26.10;37.10;;;;;;5038173;28;20480;-75
2023/05/15 06:54:20;;;;;;;0.52;0.50;;;26.10;37.10;;;;;;5035556;28;20048;-77
2023/05/15 06:56:46;;;;;;;2.50;0.50;;;26.20;37.10;;;;;;5036482;28;20512;-76
2023/05/15 06:59:12;;;;;;;1.60;0.55;;;26.30;37.30;;;;;;5038010;28;20025;-75
2023/05/15 07:01:38;;;;;;;1.40;0.43;;;26.30;37.10;;;;;;5035150;28;20052;-76
2023/05/15 07:04:05;;;;;;;0.98;0.60;;;26.40;37.00;;;;;;5052148;28;20029;-76
2023/05/15 07:06:31;;;;;;;0.63;0.63;;;26.50;36.90;;;;;;5036346;28;20073;-76
2023/05/15 07:08:58;;;;;;;7.53;6.50;;;26.60;36.60;;;;;;5038430;28;20412;-76
2023/05/15 07:11:24;;;;;;;3.13;2.58;;;26.60;36.70;;;;;;5036954;28;20029;-76
2023/05/15 07:13:51;;;;;;;2.20;1.85;;;26.70;36.60;;;;;;5034347;28;20041;-76
2023/05/15 07:16:17;;;;;;;2.65;1.30;;;26.70;36.60;;;;;;5037153;28;20061;-76
2023/05/15 07:18:43;;;;;;;5.90;1.13;;;26.80;36.70;;;;;;5037571;28;20061;-77
2023/05/15 07:21:09;;;;;;;2.25;0.85;;;26.80;36.70;;;;;;5037492;28;20037;-76
2023/05/15 07:23:35;;;;;;;0.90;0.90;;;26.80;36.90;;;;;;5035942;28;20025;-76
2023/05/15 07:26:01;;;;;;;1.17;0.88;;;26.70;36.80;;;;;;5040213;28;20033;-76
2023/05/15 07:28:27;;;;;;;2.15;0.70;;;26.80;36.50;;;;;;5037040;28;20337;-76
2023/05/15 07:30:53;;;;;;;2.47;0.68;;;26.70;36.50;;;;;;5036434;28;20033;-76
2023/05/15 07:33:19;;;;;;;1.08;0.60;;;26.60;36.60;;;;;;5036405;28;21248;-76
2023/05/15 07:35:45;;;;;;;1.52;1.05;;;26.60;36.50;;;;;;5037423;28;20037;-76
2023/05/15 07:38:11;;;;;;;1.70;0.77;;;26.50;36.50;;;;;;5036220;28;20132;-75
2023/05/15 07:40:37;;;;;;;1.13;0.90;;;26.50;35.60;;;;;;5037699;28;20033;-76
2023/05/15 07:43:03;;;;;;;6.45;1.00;;;26.40;35.90;;;;;;5068099;28;20128;-76
2023/05/15 07:45:29;;;;;;;2.75;0.90;;;26.40;36.30;;;;;;5034840;28;20143;-76
2023/05/15 07:47:56;;;;;;;1.42;0.90;;;26.30;36.20;;;;;;5034476;28;20479;-77
2023/05/15 07:50:21;;;;;;;0.85;0.52;;;26.30;36.20;;;;;;5035164;28;20037;-75
2023/05/15 07:52:47;;;;;;;1.00;0.80;;;26.20;36.30;;;;;;5035396;28;20037;-75
2023/05/15 07:55:13;;;;;;;1.25;0.90;;;26.20;36.40;;;;;;5036858;28;20045;-76
2023/05/15 07:57:39;;;;;;;1.95;0.70;;;26.10;36.60;;;;;;5034134;28;20044;-76
2023/05/15 08:00:11;;;;;;;0.50;0.50;;;26.10;36.70;;;;;;5035383;28;20040;-75
2023/05/15 08:02:41;;;;;;;3.20;0.82;;;26.00;36.50;;;;;;5034937;28;20041;-76
2023/05/15 08:05:07;;;;;;;0.88;0.60;;;26.00;39.20;;;;;;5036493;28;20523;-72
2023/05/15 08:07:34;;;;;;;2.20;0.75;;;25.90;37.80;;;;;;5035152;28;20381;-72
2023/05/15 08:10:00;;;;;;;2.30;0.85;;;25.70;37.40;;;;;;5035938;28;20087;-75
2023/05/15 08:12:26;;;;;;;7.13;1.50;;;25.60;38.40;;;;;;5036682;28;20230;-71
2023/05/15 08:14:54;;;;;;;6.55;1.48;;;25.60;39.60;;;;;;5036072;28;20543;-73
2023/05/15 08:17:20;;;;;;;3.28;1.40;;;25.60;39.80;;;;;;5035350;28;20041;-72
2023/05/15 08:19:47;;;;;;;7.00;1.30;;;25.50;39.20;;;;;;5036263;28;20566;-74
2023/05/15 08:22:13;;;;;;;5.78;1.13;;;25.20;38.80;;;;;;5034771;28;20033;-75
2023/05/15 08:24:39;;;;;;;3.47;0.80;;;25.00;38.90;;;;;;5033218;28;20401;-71
2023/05/15 08:27:06;;;;;;;3.30;1.38;;;24.80;39.00;;;;;;5036030;28;20063;-70
2023/05/15 08:29:34;;;;;;;3.38;1.00;;;24.70;39.00;;;;;;5035402;28;20128;-69
2023/05/15 08:32:00;;;;;;;4.20;1.10;;;24.60;38.90;;;;;;5033731;28;20025;-71
2023/05/15 08:34:26;;;;;;;3.20;1.05;;;24.50;38.70;;;;;;5035145;28;20053;-68
2023/05/15 08:36:52;;;;;;;5.78;1.10;;;24.40;38.90;;;;;;5033223;28;20079;-67
2023/05/15 08:41:47;;;;;;;8.02;1.35;;;24.20;43.30;;;;;;5116155;27;20612;-67
2023/05/15 08:44:13;;;;;;;2.75;1.38;;;24.20;40.90;;;;;;5037491;28;20559;-67
2023/05/15 08:46:39;;;;;;;4.15;1.58;;;24.10;40.60;;;;;;5034474;28;20029;-67
2023/05/15 08:49:29;;;;;;;4.47;1.55;;;24.10;40.10;;;;;;5035927;28;20034;-67
2023/05/15 08:51:55;;;;;;;4.22;1.05;;;24.00;40.60;;;;;;5036836;28;20124;-67
2023/05/15 08:54:21;;;;;;;1.65;0.82;;;24.00;40.30;;;;;;5033940;28;20033;-67
2023/05/15 08:56:48;;;;;;;1.20;1.02;;;24.00;40.70;;;;;;5034889;28;20041;-67
2023/05/15 08:59:13;;;;;;;3.47;1.23;;;23.90;40.90;;;;;;5034352;28;20033;-67
2023/05/15 09:01:39;;;;;;;1.83;0.70;;;23.90;40.50;;;;;;5036222;28;20843;-67
2023/05/15 09:04:05;;;;;;;1.15;0.82;;;23.80;39.50;;;;;;5036052;28;20095;-72
2023/05/15 09:06:33;;;;;;;3.40;1.15;;;23.80;40.50;;;;;;5035520;28;20564;-69
2023/05/15 09:09:00;;;;;;;5.28;1.23;;;23.70;41.80;;;;;;5038398;28;20040;-69
2023/05/15 09:11:28;;;;;;;3.75;1.50;;;23.80;42.50;;;;;;5036482;28;20495;-69
2023/05/15 09:13:59;;;;;;;33.33;2.17;;;23.70;43.20;;;;;;5035858;28;20041;-66
2023/05/15 09:16:26;;;;;;;3.42;1.15;;;23.80;44.70;;;;;;5036395;28;20064;-68
